createdAt,value
2022-08-23T00:03:22.529Z,4.20
2022-08-23T00:08:27.558Z,4.35
2022-08-23T00:13:47.828Z,4.30
2022-08-23T00:18:53.342Z,4.05
2022-08-23T00:24:03.339Z,3.88
2022-08-23T00:29:05.642Z,4.55
2022-08-23T00:34:08.704Z,3.70
2022-08-23T00:39:13.715Z,4.47
2022-08-23T00:44:39.917Z,5.00
2022-08-23T00:49:44.557Z,4.90
2022-08-23T00:54:47.545Z,5.55
2022-08-23T00:59:55.771Z,5.22
2022-08-23T01:05:01.341Z,5.90
2022-08-23T01:10:11.161Z,5.07
2022-08-23T01:15:28.395Z,4.32
2022-08-23T01:20:38.575Z,5.30
2022-08-23T01:25:48.436Z,4.85
2022-08-23T01:30:53.971Z,5.60
2022-08-23T01:35:59.303Z,4.23
2022-08-23T01:41:07.002Z,4.78
2022-08-23T01:46:18.847Z,4.43
2022-08-23T01:51:21.900Z,5.88
2022-08-23T01:56:38.139Z,3.80
2022-08-23T02:01:47.377Z,5.18
2022-08-23T02:06:54.885Z,6.82
2022-08-23T02:11:59.369Z,8.10
2022-08-23T02:17:07.151Z,8.47
2022-08-23T02:22:11.821Z,9.07
2022-08-23T02:27:17.629Z,8.07
2022-08-23T02:32:22.920Z,7.33
2022-08-23T02:37:29.858Z,7.47
2022-08-23T02:42:34.743Z,6.82
2022-08-23T02:47:40.265Z,7.45
2022-08-23T02:52:50.491Z,5.83
2022-08-23T02:57:55.344Z,8.75
2022-08-23T03:03:00.334Z,7.68
2022-08-23T03:08:08.371Z,7.55
2022-08-23T03:13:19.451Z,7.43
2022-08-23T03:18:24.101Z,7.07
2022-08-23T03:23:29.366Z,7.65
2022-08-23T03:28:35.168Z,8.90
2022-08-23T03:33:41.189Z,6.22
2022-08-23T03:38:45.898Z,7.23
2022-08-23T03:43:52.764Z,8.40
2022-08-23T03:48:59.698Z,8.23
2022-08-23T03:54:06.062Z,8.38
2022-08-23T03:59:13.984Z,8.82
2022-08-23T04:04:18.890Z,7.57
2022-08-23T04:09:55.136Z,11.27
2022-08-23T04:15:02.392Z,10.00
2022-08-23T04:20:06.880Z,10.13
2022-08-23T04:25:16.301Z,10.77
2022-08-23T04:30:39.182Z,8.25
2022-08-23T04:35:46.921Z,7.75
2022-08-23T04:41:11.805Z,8.67
2022-08-23T04:46:15.551Z,9.63
2022-08-23T04:51:24.664Z,6.57
2022-08-23T04:56:29.444Z,9.30
2022-08-23T05:01:34.939Z,12.57
2022-08-23T05:06:40.248Z,12.10
2022-08-23T05:11:44.704Z,12.03
2022-08-23T05:16:50.398Z,14.30
2022-08-23T05:21:59.117Z,9.17
2022-08-23T05:27:18.144Z,10.53
2022-08-23T05:32:21.263Z,8.30
2022-08-23T05:37:23.698Z,11.17
2022-08-23T05:42:26.178Z,12.00
2022-08-23T05:47:33.764Z,10.07
2022-08-23T05:53:02.889Z,10.27
2022-08-23T05:58:08.602Z,10.37
2022-08-23T06:03:11.010Z,10.73
2022-08-23T06:08:13.546Z,7.00
2022-08-23T06:13:15.935Z,6.93
2022-08-23T06:18:23.272Z,7.13
2022-08-23T06:23:33.345Z,9.13
2022-08-23T06:28:36.232Z,12.07
2022-08-23T06:33:55.969Z,11.13
2022-08-23T06:39:37.375Z,7.37
2022-08-23T06:44:59.961Z,6.23
2022-08-23T06:50:14.206Z,7.33
2022-08-23T06:55:37.339Z,8.17
2022-08-23T07:00:55.494Z,8.97
2022-08-23T07:06:09.368Z,14.13
2022-08-23T07:11:16.752Z,9.97
2022-08-23T07:16:25.816Z,12.27
2022-08-23T07:21:28.791Z,11.67
2022-08-23T07:26:36.822Z,10.17
2022-08-23T07:31:48.015Z,11.63
2022-08-23T07:36:51.152Z,10.17
2022-08-23T07:41:58.415Z,14.43
2022-08-23T07:47:05.615Z,10.17
2022-08-23T07:52:08.404Z,13.30
2022-08-23T07:57:10.907Z,9.93
2022-08-23T08:02:34.033Z,11.90
2022-08-23T08:07:37.992Z,9.87
2022-08-23T08:12:40.719Z,11.73
2022-08-23T08:17:54.477Z,11.40
2022-08-23T08:23:00.487Z,11.33
2022-08-23T08:28:21.529Z,11.23
2022-08-23T08:33:24.524Z,17.35
2022-08-23T08:38:38.865Z,11.27
2022-08-23T08:43:50.972Z,13.07
2022-08-23T08:48:57.486Z,11.67
2022-08-23T08:54:01.168Z,12.53
2022-08-23T08:59:09.630Z,10.03
2022-08-23T09:04:14.536Z,16.20
2022-08-23T09:09:24.685Z,15.03
2022-08-23T09:14:27.482Z,14.43
2022-08-23T09:19:37.555Z,13.32
2022-08-23T09:24:42.719Z,13.25
2022-08-23T09:29:59.163Z,14.43
2022-08-23T09:35:12.337Z,14.27
2022-08-23T09:40:28.937Z,14.93
2022-08-23T09:45:35.821Z,12.82
2022-08-23T09:50:47.897Z,13.03
2022-08-23T09:55:57.339Z,15.68
2022-08-23T10:01:16.849Z,12.52
2022-08-23T10:06:34.293Z,15.55
2022-08-23T10:11:46.468Z,16.40
2022-08-23T10:17:05.283Z,12.02
2022-08-23T10:22:24.423Z,15.90
2022-08-23T10:28:02.202Z,13.73
2022-08-23T10:33:10.740Z,15.63
2022-08-23T10:38:35.077Z,11.75
2022-08-23T10:43:44.396Z,14.00
2022-08-23T10:48:52.326Z,14.23
2022-08-23T10:53:57.042Z,12.50
2022-08-23T10:59:03.343Z,11.85
2022-08-23T11:04:20.421Z,12.20
2022-08-23T11:09:46.014Z,13.77
2022-08-23T11:15:07.573Z,13.10
2022-08-23T11:20:35.660Z,14.77
2022-08-23T11:25:41.346Z,11.75
2022-08-23T11:31:04.769Z,12.85
2022-08-23T11:36:13.503Z,12.00
2022-08-23T11:41:33.394Z,40.03
2022-08-23T11:46:53.873Z,22.55
2022-08-23T11:52:08.146Z,12.48
2022-08-23T11:57:29.259Z,22.90
2022-08-23T12:02:39.506Z,18.80
2022-08-23T12:07:46.628Z,14.37
2022-08-23T12:13:15.270Z,15.30
2022-08-23T12:18:24.124Z,25.15
2022-08-23T12:23:30.832Z,15.63
2022-08-23T12:28:46.041Z,19.10
2022-08-23T12:33:59.075Z,17.05
2022-08-23T12:39:08.866Z,12.55
2022-08-23T12:44:17.415Z,13.75
2022-08-23T12:49:30.496Z,18.90
2022-08-23T12:54:43.321Z,22.98
2022-08-23T13:00:01.516Z,17.67
2022-08-23T13:05:48.548Z,17.15
2022-08-23T13:11:01.889Z,12.32
2022-08-23T13:16:27.246Z,14.57
2022-08-23T13:21:34.872Z,14.32
2022-08-23T13:26:49.813Z,18.13
2022-08-23T13:31:52.192Z,14.63
2022-08-23T13:36:57.499Z,21.92
2022-08-23T13:42:03.680Z,17.83
2022-08-23T13:47:06.785Z,10.57
2022-08-23T13:52:45.550Z,16.88
2022-08-23T13:57:37.112Z,12.68
2022-08-23T14:02:49.028Z,12.13
2022-08-23T14:07:53.491Z,16.30
2022-08-23T14:13:02.298Z,15.88
2022-08-23T14:18:05.018Z,14.10
2022-08-23T14:23:11.764Z,16.95
2022-08-23T14:28:18.838Z,13.45
2022-08-23T14:33:26.017Z,13.68
2022-08-23T14:38:28.395Z,15.98
2022-08-23T14:43:33.358Z,17.27
2022-08-23T14:48:37.391Z,16.92
2022-08-23T14:53:39.930Z,18.00
2022-08-23T14:58:43.041Z,12.30
2022-08-23T15:03:50.039Z,15.27
2022-08-23T15:08:54.649Z,17.08
2022-08-23T15:14:04.892Z,15.25
2022-08-23T15:19:07.646Z,13.07
2022-08-23T15:24:10.135Z,13.43
2022-08-23T15:29:19.201Z,13.05
2022-08-23T15:34:25.698Z,18.58
2022-08-23T15:39:30.436Z,22.70
2022-08-23T15:44:42.589Z,13.48
2022-08-23T15:49:45.145Z,14.60
2022-08-23T15:54:47.999Z,16.70
2022-08-23T15:59:55.254Z,15.60
2022-08-23T16:05:00.110Z,16.83
2022-08-23T16:10:06.555Z,16.83
2022-08-23T16:15:11.274Z,15.07
2022-08-23T16:20:14.362Z,15.73
2022-08-23T16:25:16.947Z,19.30
2022-08-23T16:30:19.417Z,19.73
2022-08-23T16:35:22.282Z,15.73
2022-08-23T16:40:29.636Z,21.20
2022-08-23T16:45:32.519Z,15.33
2022-08-23T16:50:37.440Z,16.93
2022-08-23T16:55:42.310Z,19.97
2022-08-23T17:00:48.062Z,16.37
2022-08-23T17:05:55.279Z,20.00
2022-08-23T17:11:03.549Z,19.60
2022-08-23T17:16:18.903Z,17.87
2022-08-23T17:21:21.474Z,15.73
2022-08-23T17:26:28.606Z,19.33
2022-08-23T17:31:33.574Z,17.07
2022-08-23T17:36:46.222Z,21.80
2022-08-23T17:41:55.966Z,19.10
2022-08-23T21:51:24.533Z,20.33
2022-08-23T21:56:30.262Z,23.70
2022-08-23T22:01:37.653Z,22.40
2022-08-23T22:06:41.325Z,20.43
2022-08-23T22:11:44.655Z,21.43
2022-08-23T22:16:49.408Z,20.57
2022-08-23T22:22:01.115Z,26.07
2022-08-23T22:27:03.810Z,19.43
2022-08-23T22:32:08.403Z,15.63
2022-08-23T22:37:10.991Z,17.60
2022-08-23T22:42:20.543Z,20.23
2022-08-23T22:47:28.509Z,17.63
2022-08-23T22:52:30.866Z,17.23
2022-08-23T22:57:38.009Z,17.50
2022-08-23T23:02:40.892Z,16.10
2022-08-23T23:08:04.213Z,20.13
2022-08-23T23:13:11.626Z,22.63
2022-08-23T23:18:19.279Z,21.63
2022-08-23T23:23:22.547Z,19.83
2022-08-23T23:28:25.538Z,19.17
2022-08-23T23:33:32.258Z,14.87
2022-08-23T23:38:37.585Z,17.13
2022-08-23T23:43:40.184Z,18.90
2022-08-23T23:48:43.605Z,20.80
2022-08-23T23:53:56.130Z,26.27
2022-08-23T23:58:58.798Z,17.63
